Time;durP1;ratioP1;P1;durP2;ratioP2;P2;SDS_P1;SDS_P2;PMS_P1;PMS_P2;Temp;Humidity;BMP_temperature;BMP_pressure;BME280_temperature;BME280_humidity;BME280_pressure;Samples;Min_cycle;Max_cycle;Signal;HPM_P1;HPM_P2
2023/02/16 00:01:23;;;;;;;17.70;12.00;;;18.10;49.10;;;;;;5093464;28;20472;-81
2023/02/16 00:03:51;;;;;;;19.10;13.20;;;18.00;49.20;;;;;;5087147;28;20480;-81
2023/02/16 00:06:20;;;;;;;18.67;12.37;;;18.00;49.20;;;;;;5085311;28;20480;-80
2023/02/16 00:08:49;;;;;;;23.60;13.13;;;18.00;49.30;;;;;;5093394;28;20461;-80
2023/02/16 00:14:07;;;;;;;20.60;12.80;;;18.00;49.40;;;;;;5087584;28;20475;-80
2023/02/16 00:16:35;;;;;;;18.70;12.97;;;18.00;49.40;;;;;;5088828;28;20456;-81
2023/02/16 00:29:43;;;;;;;19.27;12.70;;;18.00;49.50;;;;;;5076709;27;20677;-83
2023/02/16 00:32:13;;;;;;;21.80;13.23;;;17.70;50.20;;;;;;5065672;28;20476;-82
2023/02/16 00:34:41;;;;;;;24.00;12.70;;;17.60;50.40;;;;;;5069860;28;20453;-84
2023/02/16 00:37:10;;;;;;;18.70;11.90;;;17.70;50.10;;;;;;5072210;28;20449;-84
2023/02/16 00:39:39;;;;;;;20.13;12.40;;;17.70;50.00;;;;;;5072147;28;20457;-81
2023/02/16 00:42:10;;;;;;;17.67;12.67;;;17.80;49.80;;;;;;5064667;28;20544;-82
2023/02/16 00:44:40;;;;;;;19.83;13.60;;;17.80;49.80;;;;;;5063621;28;20461;-82
2023/02/16 00:47:17;;;;;;;22.70;13.70;;;17.80;49.70;;;;;;5060739;28;20459;-82
2023/02/16 00:49:45;;;;;;;19.53;12.37;;;17.80;49.70;;;;;;5063902;28;20453;-83
2023/02/16 00:52:30;;;;;;;21.37;12.80;;;17.80;49.70;;;;;;5066360;28;20533;-83
2023/02/16 00:54:57;;;;;;;17.13;11.90;;;17.80;49.70;;;;;;5057814;28;20457;-82
2023/02/16 00:57:25;;;;;;;22.40;12.90;;;17.70;49.70;;;;;;5067878;28;20477;-83
2023/02/16 00:59:57;;;;;;;21.70;14.00;;;17.70;49.60;;;;;;5067998;28;20831;-84
2023/02/16 01:02:26;;;;;;;20.37;12.87;;;17.70;49.70;;;;;;5067988;28;21027;-83
2023/02/16 01:04:54;;;;;;;19.17;12.20;;;17.70;49.80;;;;;;5068380;28;20522;-84
2023/02/16 01:12:53;;;;;;;30.23;17.80;;;17.70;49.90;;;;;;5069214;28;20469;-83
2023/02/16 01:15:22;;;;;;;30.73;16.90;;;17.70;49.80;;;;;;5070805;28;20449;-82
2023/02/16 01:17:52;;;;;;;27.77;18.37;;;17.70;49.80;;;;;;5061290;28;20470;-82
2023/02/16 01:20:21;;;;;;;25.03;17.40;;;17.60;49.80;;;;;;5064615;28;20464;-83
2023/02/16 01:22:49;;;;;;;25.80;16.90;;;17.60;49.80;;;;;;5065927;28;20466;-84
2023/02/16 01:25:17;;;;;;;28.17;17.60;;;17.60;49.80;;;;;;5068845;28;20460;-83
2023/02/16 01:27:45;;;;;;;25.90;16.40;;;17.60;49.80;;;;;;5067739;28;20442;-83
2023/02/16 01:30:15;;;;;;;27.87;18.10;;;17.60;49.90;;;;;;5052896;28;20465;-82
2023/02/16 01:32:46;;;;;;;25.10;16.30;;;17.60;49.90;;;;;;5055565;28;20469;-83
2023/02/16 01:35:15;;;;;;;25.30;16.60;;;17.60;50.00;;;;;;5057272;28;20453;-83
2023/02/16 01:37:43;;;;;;;27.50;16.47;;;17.60;49.80;;;;;;5053293;28;20451;-83
2023/02/16 01:40:18;;;;;;;26.10;17.03;;;17.50;49.80;;;;;;5052136;28;20450;-82
2023/02/16 01:42:48;;;;;;;26.13;16.80;;;17.50;49.90;;;;;;5053431;28;20480;-83
2023/02/16 01:45:18;;;;;;;30.33;16.60;;;17.50;50.00;;;;;;5055242;28;20447;-81
2023/02/16 01:47:49;;;;;;;27.13;16.93;;;17.50;49.90;;;;;;5053638;28;20458;-83
2023/02/16 01:50:20;;;;;;;25.60;16.30;;;17.50;49.90;;;;;;5056168;28;20480;-83
2023/02/16 01:52:52;;;;;;;26.90;16.93;;;17.50;49.90;;;;;;5055593;28;20572;-84
2023/02/16 01:55:22;;;;;;;26.30;16.20;;;17.40;49.90;;;;;;5054094;28;20447;-83
2023/02/16 01:57:51;;;;;;;24.67;16.20;;;17.40;49.90;;;;;;5048264;28;20442;-83
2023/02/16 02:00:24;;;;;;;23.40;14.80;;;17.40;49.90;;;;;;5058778;28;20513;-83
2023/02/16 02:02:53;;;;;;;25.00;16.07;;;17.40;49.90;;;;;;5051278;28;20458;-83
2023/02/16 02:05:35;;;;;;;24.80;16.20;;;17.40;50.00;;;;;;5050097;28;20455;-83
2023/02/16 02:08:09;;;;;;;26.20;16.00;;;17.40;50.00;;;;;;5054365;28;20442;-83
2023/02/16 02:10:41;;;;;;;23.03;15.10;;;17.40;50.00;;;;;;5054303;28;20482;-83
2023/02/16 02:13:14;;;;;;;22.83;15.87;;;17.40;50.10;;;;;;5051624;28;20474;-83
2023/02/16 02:15:42;;;;;;;21.50;14.80;;;17.30;50.00;;;;;;5051353;28;20458;-83
2023/02/16 02:18:10;;;;;;;23.07;15.30;;;17.30;50.20;;;;;;5062604;28;20492;-83
2023/02/16 02:23:43;;;;;;;28.87;15.10;;;17.30;50.00;;;;;;5047518;28;20470;-83
2023/02/16 02:26:47;;;;;;;22.60;15.27;;;17.30;50.20;;;;;;5045779;28;20485;-83
2023/02/16 02:29:42;;;;;;;26.57;14.60;;;17.30;50.20;;;;;;5042824;28;20456;-83
2023/02/16 02:32:16;;;;;;;25.13;15.70;;;17.30;50.20;;;;;;5045784;28;20474;-83
2023/02/16 02:34:54;;;;;;;22.33;15.20;;;17.20;50.10;;;;;;5047836;28;20484;-83
2023/02/16 02:37:26;;;;;;;21.70;14.87;;;17.20;50.20;;;;;;5048348;28;20454;-83
2023/02/16 02:39:58;;;;;;;22.37;14.90;;;17.20;50.10;;;;;;5048237;28;20463;-83
2023/02/16 02:42:32;;;;;;;21.90;14.03;;;17.20;50.10;;;;;;5049377;28;20481;-82
2023/02/16 02:45:04;;;;;;;24.50;15.03;;;17.20;50.20;;;;;;5050287;28;20459;-82
2023/02/16 02:47:39;;;;;;;22.70;14.47;;;17.20;50.20;;;;;;5052017;28;20454;-82
2023/02/16 02:50:34;;;;;;;22.50;14.77;;;17.20;50.20;;;;;;5048553;28;20455;-83
2023/02/16 02:53:04;;;;;;;22.13;13.77;;;17.10;50.20;;;;;;5053654;28;20939;-82
2023/02/16 03:01:04;;;;;;;23.10;14.80;;;17.10;50.20;;;;;;5044699;28;20454;-82
2023/02/16 03:03:33;;;;;;;26.10;15.23;;;17.00;50.20;;;;;;5054592;28;20486;-82
2023/02/16 03:06:02;;;;;;;23.00;14.53;;;17.00;50.40;;;;;;5054069;28;20457;-82
2023/02/16 03:08:31;;;;;;;20.67;13.70;;;17.00;50.40;;;;;;5045341;28;20443;-82
2023/02/16 03:13:48;;;;;;;20.97;13.57;;;17.00;50.20;;;;;;5049510;28;20470;-82
2023/02/16 03:16:19;;;;;;;21.77;14.57;;;17.00;50.40;;;;;;5048453;28;20455;-83
2023/02/16 03:29:53;;;;;;;22.23;14.90;;;16.90;50.50;;;;;;5054341;28;20448;-83
2023/02/16 03:32:22;;;;;;;22.23;14.50;;;16.90;50.50;;;;;;5051123;28;20490;-84
2023/02/16 03:34:50;;;;;;;23.57;14.70;;;16.90;50.40;;;;;;5050625;28;20463;-83
2023/02/16 03:37:18;;;;;;;19.87;13.30;;;16.90;50.50;;;;;;5052687;28;20475;-83
2023/02/16 03:42:32;;;;;;;21.30;14.07;;;16.80;50.40;;;;;;5043885;28;20477;-83
2023/02/16 03:45:01;;;;;;;24.07;15.17;;;16.80;50.40;;;;;;5049272;28;20453;-83
2023/02/16 03:47:29;;;;;;;20.87;14.37;;;16.80;50.40;;;;;;5045831;28;20458;-83
2023/02/16 03:49:57;;;;;;;22.93;14.60;;;16.80;50.50;;;;;;5049955;28;20443;-83
2023/02/16 03:52:25;;;;;;;22.07;14.73;;;16.80;50.50;;;;;;5048092;28;20493;-83
2023/02/16 03:54:53;;;;;;;23.77;15.00;;;16.80;50.40;;;;;;5043247;28;20477;-83
2023/02/16 03:57:21;;;;;;;22.77;14.53;;;16.80;50.50;;;;;;5053394;28;20478;-83
2023/02/16 03:59:49;;;;;;;22.70;14.77;;;16.80;50.40;;;;;;5049852;28;20466;-82
2023/02/16 04:02:19;;;;;;;26.00;14.83;;;16.80;50.30;;;;;;5049030;28;20505;-82
2023/02/16 04:04:47;;;;;;;20.13;13.50;;;16.80;50.40;;;;;;5053786;28;20947;-82
2023/02/16 04:07:15;;;;;;;25.20;15.50;;;16.80;50.30;;;;;;5051500;28;20461;-82
2023/02/16 04:09:43;;;;;;;24.40;14.10;;;16.70;50.30;;;;;;5046077;28;20447;-82
2023/02/16 04:14:57;;;;;;;20.20;14.20;;;16.70;50.40;;;;;;5046682;28;20446;-82
2023/02/16 04:17:26;;;;;;;23.83;14.67;;;16.70;50.30;;;;;;5052241;28;20457;-82
2023/02/16 04:19:54;;;;;;;20.80;13.83;;;16.70;50.50;;;;;;5051244;28;20474;-82
2023/02/16 04:22:22;;;;;;;23.17;15.13;;;16.70;50.40;;;;;;5047084;28;20493;-83
2023/02/16 04:24:50;;;;;;;20.10;13.37;;;16.70;50.40;;;;;;5052129;28;20455;-83
2023/02/16 04:27:18;;;;;;;22.87;14.20;;;16.70;50.50;;;;;;5052548;28;20999;-82
2023/02/16 04:29:54;;;;;;;24.43;15.07;;;16.70;50.50;;;;;;5051899;28;20454;-82
2023/02/16 04:32:22;;;;;;;23.63;13.50;;;16.70;50.40;;;;;;5042766;28;20550;-82
2023/02/16 04:34:53;;;;;;;20.27;13.60;;;16.60;50.50;;;;;;5049926;28;20442;-82
2023/02/16 04:37:21;;;;;;;26.43;15.73;;;16.60;50.50;;;;;;5049619;28;20534;-83
2023/02/16 04:39:49;;;;;;;22.77;14.87;;;16.70;50.60;;;;;;5051324;28;20470;-83
2023/02/16 04:42:17;;;;;;;23.13;15.10;;;16.60;50.70;;;;;;5050347;28;20467;-83
2023/02/16 04:44:46;;;;;;;21.33;13.60;;;16.60;50.50;;;;;;5044721;28;20454;-83
2023/02/16 04:47:13;;;;;;;20.07;13.43;;;16.60;50.60;;;;;;5050709;28;20458;-83
2023/02/16 04:49:42;;;;;;;20.17;12.93;;;16.60;50.50;;;;;;5045064;28;20458;-82
2023/02/16 04:52:11;;;;;;;23.07;14.57;;;16.60;50.60;;;;;;5050945;28;20474;-83
2023/02/16 04:54:39;;;;;;;23.93;14.97;;;16.60;50.30;;;;;;5054160;28;20458;-83
2023/02/16 04:57:07;;;;;;;22.50;14.33;;;16.60;50.60;;;;;;5053172;28;20470;-82
2023/02/16 04:59:35;;;;;;;23.10;15.40;;;16.60;50.70;;;;;;5053022;28;20475;-83
2023/02/16 05:02:03;;;;;;;23.87;14.40;;;16.60;50.50;;;;;;5044382;28;20474;-82
2023/02/16 05:04:31;;;;;;;25.30;14.93;;;16.50;50.60;;;;;;5051381;28;20442;-82
2023/02/16 05:06:59;;;;;;;22.43;14.80;;;16.60;50.50;;;;;;5054260;28;20455;-82
2023/02/16 05:09:28;;;;;;;21.23;13.93;;;16.50;50.50;;;;;;5057117;28;20461;-83
2023/02/16 05:14:41;;;;;;;20.80;14.20;;;16.50;50.50;;;;;;5053318;28;21002;-82
2023/02/16 05:17:09;;;;;;;24.90;15.03;;;16.50;50.50;;;;;;5052225;28;20455;-82
2023/02/16 05:19:38;;;;;;;19.03;13.57;;;16.50;50.70;;;;;;5054703;28;20466;-82
2023/02/16 05:22:06;;;;;;;21.90;14.40;;;16.50;50.50;;;;;;5056310;28;20549;-82
2023/02/16 05:24:35;;;;;;;22.87;14.50;;;16.50;50.60;;;;;;5066918;28;20435;-82
2023/02/16 05:27:04;;;;;;;22.13;14.23;;;16.50;50.50;;;;;;5044372;28;20471;-82
2023/02/16 05:29:31;;;;;;;22.17;14.70;;;16.50;50.60;;;;;;5055573;28;20462;-81
2023/02/16 05:32:00;;;;;;;21.43;13.70;;;16.50;50.60;;;;;;5053652;28;20463;-82
2023/02/16 05:34:31;;;;;;;20.20;14.10;;;16.60;50.70;;;;;;5052018;28;20481;-82
2023/02/16 05:36:59;;;;;;;24.30;15.30;;;16.50;50.50;;;;;;5051103;28;20438;-82
2023/02/16 05:39:27;;;;;;;22.80;15.10;;;16.50;50.60;;;;;;5056992;28;20451;-82
2023/02/16 05:41:56;;;;;;;21.20;14.87;;;16.50;50.60;;;;;;5054063;28;20565;-83
2023/02/16 05:44:25;;;;;;;21.57;14.07;;;16.50;50.60;;;;;;5047544;28;20454;-82
2023/02/16 05:46:53;;;;;;;20.40;13.90;;;16.50;50.60;;;;;;5046523;28;20447;-83
2023/02/16 05:49:21;;;;;;;27.93;15.83;;;16.50;50.50;;;;;;5048966;28;20473;-82
2023/02/16 05:51:49;;;;;;;20.93;14.90;;;16.50;50.70;;;;;;5046463;28;20454;-82
2023/02/16 05:54:17;;;;;;;25.47;15.20;;;16.50;50.60;;;;;;5055467;28;20451;-82
2023/02/16 05:56:45;;;;;;;21.80;14.63;;;16.50;50.60;;;;;;5053297;28;20470;-83
2023/02/16 05:59:16;;;;;;;25.70;16.20;;;16.50;50.60;;;;;;5050695;28;20457;-83
2023/02/16 06:01:45;;;;;;;21.23;14.30;;;16.50;50.50;;;;;;5046060;28;20470;-82
2023/02/16 06:04:18;;;;;;;24.43;16.40;;;16.50;50.70;;;;;;5046684;28;20465;-83
2023/02/16 06:06:46;;;;;;;25.50;16.10;;;16.50;50.50;;;;;;5046694;28;20815;-82
2023/02/16 06:09:13;;;;;;;25.33;16.00;;;16.50;50.60;;;;;;5051349;28;20455;-83
2023/02/16 06:11:41;;;;;;;25.03;16.07;;;16.50;50.70;;;;;;5048595;28;20494;-82
2023/02/16 06:14:11;;;;;;;27.40;16.80;;;16.50;50.60;;;;;;5046356;28;20463;-82
2023/02/16 06:16:42;;;;;;;23.20;15.83;;;16.50;50.40;;;;;;5049116;28;20473;-84
2023/02/16 06:19:10;;;;;;;25.90;16.40;;;16.50;50.60;;;;;;5047401;28;20447;-82
2023/02/16 06:21:38;;;;;;;28.23;17.13;;;16.50;50.50;;;;;;5053028;28;20470;-83
2023/02/16 06:24:07;;;;;;;24.80;16.90;;;16.50;50.50;;;;;;5055012;28;20473;-83
2023/02/16 06:26:35;;;;;;;28.17;17.60;;;16.50;50.60;;;;;;5048597;28;21021;-83
2023/02/16 06:29:03;;;;;;;28.93;17.30;;;16.50;50.50;;;;;;5051572;28;20596;-83
2023/02/16 06:31:31;;;;;;;27.40;17.10;;;16.50;50.50;;;;;;5053868;28;20457;-83
2023/02/16 06:34:04;;;;;;;25.83;15.67;;;16.40;50.50;;;;;;5054009;28;20474;-83
2023/02/16 06:36:33;;;;;;;27.60;16.57;;;16.50;50.70;;;;;;5051503;28;20512;-84
2023/02/16 06:39:01;;;;;;;25.83;16.77;;;16.50;50.60;;;;;;5042205;28;20526;-82
2023/02/16 06:41:34;;;;;;;26.73;17.30;;;16.50;50.60;;;;;;5047310;28;20470;-84
2023/02/16 06:44:03;;;;;;;25.00;15.70;;;16.50;50.70;;;;;;5043133;28;20929;-83
2023/02/16 06:46:31;;;;;;;26.77;16.97;;;16.40;50.60;;;;;;5045713;28;20452;-83
2023/02/16 06:49:00;;;;;;;25.70;16.03;;;16.50;50.70;;;;;;5052418;28;20458;-82
2023/02/16 06:51:29;;;;;;;22.70;14.97;;;16.50;50.90;;;;;;5052983;28;20451;-84
2023/02/16 06:53:57;;;;;;;24.57;16.23;;;16.50;50.70;;;;;;5054790;28;20478;-82
2023/02/16 06:56:26;;;;;;;25.77;16.40;;;16.50;50.70;;;;;;5054117;28;20470;-82
2023/02/16 06:58:54;;;;;;;26.07;16.10;;;16.50;50.70;;;;;;5050938;28;20454;-83
2023/02/16 07:01:24;;;;;;;24.97;16.90;;;16.50;50.70;;;;;;5052471;28;20478;-83
2023/02/16 07:03:53;;;;;;;26.80;16.27;;;16.50;50.70;;;;;;5055521;28;20482;-83
2023/02/16 07:06:22;;;;;;;25.70;17.60;;;16.50;50.60;;;;;;5054233;28;21013;-83
2023/02/16 07:08:51;;;;;;;25.77;17.10;;;16.50;50.60;;;;;;5055742;28;20459;-81
2023/02/16 07:11:19;;;;;;;25.47;16.03;;;16.50;50.60;;;;;;5053079;28;20538;-82
2023/02/16 07:13:47;;;;;;;24.00;15.87;;;16.40;50.60;;;;;;5050341;28;20565;-83
2023/02/16 07:16:15;;;;;;;26.43;16.60;;;16.50;50.60;;;;;;5050233;28;20452;-83
2023/02/16 07:18:45;;;;;;;27.03;17.80;;;16.50;50.70;;;;;;5045366;28;20447;-84
2023/02/16 07:21:16;;;;;;;26.70;17.47;;;16.50;50.60;;;;;;5047415;28;20477;-83
2023/02/16 07:23:44;;;;;;;27.70;18.00;;;16.40;50.60;;;;;;5050548;28;20995;-82
2023/02/16 07:26:14;;;;;;;25.50;17.67;;;16.40;50.60;;;;;;5047254;28;20487;-83
2023/02/16 07:28:42;;;;;;;30.33;18.33;;;16.50;50.60;;;;;;5053577;28;20459;-83
2023/02/16 07:31:10;;;;;;;24.13;16.23;;;16.50;50.50;;;;;;5053503;28;20447;-83
2023/02/16 07:33:38;;;;;;;28.27;18.10;;;16.50;50.50;;;;;;5054752;28;20467;-81
2023/02/16 07:36:07;;;;;;;30.90;17.80;;;16.50;50.60;;;;;;5050217;28;20509;-83
2023/02/16 07:38:35;;;;;;;27.93;18.07;;;16.50;50.40;;;;;;5047343;28;20529;-83
2023/02/16 07:41:03;;;;;;;25.17;17.17;;;16.50;50.40;;;;;;5047815;28;20480;-83
2023/02/16 07:43:37;;;;;;;27.60;18.20;;;16.50;50.30;;;;;;5052811;28;20474;-83
2023/02/16 07:46:05;;;;;;;28.87;18.37;;;16.50;50.40;;;;;;5050187;28;20454;-83
2023/02/16 07:48:34;;;;;;;29.13;18.57;;;16.50;50.50;;;;;;5051188;28;20502;-83
2023/02/16 07:51:02;;;;;;;27.90;18.70;;;16.50;50.30;;;;;;5048585;28;20463;-83
2023/02/16 07:53:31;;;;;;;30.83;19.33;;;16.60;50.30;;;;;;5053848;28;20473;-83
2023/02/16 07:55:59;;;;;;;30.63;18.03;;;16.60;50.40;;;;;;5051414;28;20466;-83
2023/02/16 07:58:27;;;;;;;28.73;17.87;;;16.60;50.40;;;;;;5053604;28;20975;-83
2023/02/16 08:01:05;;;;;;;30.33;18.70;;;16.50;50.40;;;;;;5050751;28;20539;-83
2023/02/16 08:03:33;;;;;;;32.30;18.63;;;16.60;50.40;;;;;;5049537;28;20481;-83
2023/02/16 08:06:01;;;;;;;25.90;17.30;;;16.60;50.40;;;;;;5051405;28;20453;-83
2023/02/16 08:08:29;;;;;;;29.50;18.77;;;16.60;50.50;;;;;;5053516;28;20454;-84
2023/02/16 08:10:57;;;;;;;32.00;19.33;;;16.60;50.40;;;;;;5047460;28;20467;-83
2023/02/16 08:13:25;;;;;;;27.27;18.17;;;16.60;50.40;;;;;;5053029;28;20473;-82
2023/02/16 08:15:53;;;;;;;29.53;18.63;;;16.60;50.40;;;;;;5053694;28;20455;-83
2023/02/16 08:18:23;;;;;;;31.40;18.50;;;16.60;50.30;;;;;;5046256;28;20461;-83
2023/02/16 08:20:51;;;;;;;32.27;18.73;;;16.60;50.30;;;;;;5053814;28;20443;-83
2023/02/16 08:23:31;;;;;;;27.53;17.57;;;16.60;50.30;;;;;;5053881;28;20501;-83
2023/02/16 08:25:59;;;;;;;30.07;18.80;;;16.70;50.40;;;;;;5046495;28;20534;-83
2023/02/16 08:28:28;;;;;;;34.40;17.93;;;16.70;50.40;;;;;;5046286;28;20462;-83
2023/02/16 08:30:56;;;;;;;29.10;18.90;;;16.70;50.50;;;;;;5053525;28;20433;-86
2023/02/16 08:33:25;;;;;;;26.83;18.27;;;16.70;50.40;;;;;;5043165;28;20463;-82
2023/02/16 08:35:53;;;;;;;26.83;17.80;;;16.70;50.40;;;;;;5038150;28;20453;-83
2023/02/16 08:38:21;;;;;;;29.13;17.80;;;16.70;50.40;;;;;;5042700;28;20464;-84
2023/02/16 08:40:49;;;;;;;30.17;17.80;;;16.70;50.50;;;;;;5042679;28;20455;-83
2023/02/16 08:43:17;;;;;;;23.93;16.80;;;16.70;50.50;;;;;;5044152;28;20490;-83
2023/02/16 08:45:46;;;;;;;28.97;18.57;;;16.80;50.70;;;;;;5051741;28;20467;-82
2023/02/16 08:48:15;;;;;;;31.10;18.20;;;16.80;50.60;;;;;;5050880;28;20448;-81
2023/02/16 08:50:52;;;;;;;29.07;17.90;;;16.80;50.40;;;;;;5049470;28;20538;-81
2023/02/16 08:53:22;;;;;;;29.27;18.60;;;16.90;50.40;;;;;;5040009;28;20460;-82
2023/02/16 08:55:54;;;;;;;30.90;19.50;;;16.90;50.20;;;;;;5046383;28;20463;-81
2023/02/16 08:58:23;;;;;;;30.53;19.20;;;17.00;50.20;;;;;;5051199;28;20446;-82
2023/02/16 09:00:51;;;;;;;29.80;19.20;;;16.90;50.00;;;;;;5041051;28;20543;-82
2023/02/16 09:03:19;;;;;;;32.07;20.43;;;17.00;50.20;;;;;;5051914;28;20470;-81
2023/02/16 09:05:48;;;;;;;31.50;20.83;;;17.00;49.90;;;;;;5057745;28;20453;-80
2023/02/16 09:08:16;;;;;;;31.63;19.80;;;17.00;49.80;;;;;;5051307;28;20434;-80
2023/02/16 09:10:44;;;;;;;29.07;19.90;;;17.00;49.80;;;;;;5055703;28;20832;-81
2023/02/16 09:13:13;;;;;;;29.87;19.47;;;17.00;49.70;;;;;;5057795;28;20458;-81
2023/02/16 09:15:42;;;;;;;35.60;20.67;;;17.10;49.80;;;;;;5054342;28;20454;-81
2023/02/16 09:18:11;;;;;;;33.07;19.63;;;17.10;49.80;;;;;;5044299;28;20450;-81
2023/02/16 09:20:40;;;;;;;31.07;19.73;;;17.20;49.80;;;;;;5052769;28;20470;-82
2023/02/16 09:23:11;;;;;;;31.30;20.47;;;17.30;49.80;;;;;;5047555;28;20481;-83
2023/02/16 09:25:40;;;;;;;30.30;18.93;;;17.20;49.70;;;;;;5050682;28;20447;-82
2023/02/16 09:28:08;;;;;;;30.47;20.00;;;17.30;49.70;;;;;;5042344;28;20447;-82
2023/02/16 09:30:37;;;;;;;30.67;20.03;;;17.40;49.60;;;;;;5047264;28;20438;-81
2023/02/16 09:33:06;;;;;;;29.40;20.00;;;17.40;49.70;;;;;;5054848;28;20458;-82
2023/02/16 09:35:34;;;;;;;33.83;20.30;;;17.40;49.50;;;;;;5046469;28;20447;-82
2023/02/16 09:38:02;;;;;;;29.63;19.40;;;17.40;49.70;;;;;;5056797;28;20431;-80
2023/02/16 09:40:31;;;;;;;27.67;19.23;;;17.50;49.60;;;;;;5057448;28;20476;-81
2023/02/16 09:43:05;;;;;;;32.93;20.07;;;17.50;49.60;;;;;;5056156;28;20476;-82
2023/02/16 09:45:37;;;;;;;31.40;20.50;;;17.50;49.60;;;;;;5051797;28;20522;-81
2023/02/16 09:48:05;;;;;;;33.03;20.30;;;17.50;49.80;;;;;;5058882;28;20427;-82
2023/02/16 09:50:33;;;;;;;27.43;18.73;;;17.50;49.80;;;;;;5053180;28;20439;-82
2023/02/16 09:53:22;;;;;;;30.23;18.33;;;17.50;49.60;;;;;;5056379;28;20455;-81
2023/02/16 09:55:56;;;;;;;28.60;18.93;;;17.50;49.70;;;;;;5058933;28;20500;-82
2023/02/16 09:58:27;;;;;;;29.90;19.20;;;17.60;49.70;;;;;;5050312;28;20438;-82
2023/02/16 10:00:57;;;;;;;31.60;19.60;;;17.60;49.80;;;;;;5053923;28;20438;-81
2023/02/16 10:03:33;;;;;;;27.23;18.03;;;17.60;49.80;;;;;;5054379;28;20474;-79
2023/02/16 10:06:05;;;;;;;30.53;18.53;;;17.60;49.80;;;;;;5058737;28;20466;-81
2023/02/16 10:08:37;;;;;;;31.43;18.30;;;17.60;49.90;;;;;;5046879;28;20442;-81
2023/02/16 10:11:36;;;;;;;32.50;18.90;;;17.60;50.00;;;;;;5057133;28;20470;-82
2023/02/16 10:14:00;;;;;;;29.43;18.77;;;17.60;50.10;;;;;;5051874;28;20459;-82
2023/02/16 10:16:30;;;;;;;27.23;17.60;;;17.50;50.60;;;;;;5048844;28;20453;-82
2023/02/16 10:18:58;;;;;;;26.77;17.43;;;17.50;50.10;;;;;;5056311;28;20445;-81
2023/02/16 10:21:28;;;;;;;27.60;18.00;;;17.50;50.20;;;;;;5053006;28;20446;-82
2023/02/16 10:23:57;;;;;;;29.90;18.27;;;17.50;50.10;;;;;;5056246;28;20462;-81
2023/02/16 10:26:30;;;;;;;26.87;17.47;;;17.50;50.10;;;;;;5055928;28;20469;-81
2023/02/16 10:29:00;;;;;;;31.70;18.40;;;17.50;50.30;;;;;;5054687;28;20450;-80
2023/02/16 10:31:30;;;;;;;25.53;17.73;;;17.50;50.30;;;;;;5056418;28;20457;-82
2023/02/16 10:34:05;;;;;;;31.83;18.53;;;17.60;50.40;;;;;;5050354;28;20500;-81
2023/02/16 10:36:45;;;;;;;25.47;17.73;;;17.60;50.40;;;;;;5058510;28;20473;-81
2023/02/16 10:39:18;;;;;;;29.73;18.40;;;17.60;50.30;;;;;;5057556;28;20518;-81
2023/02/16 10:41:50;;;;;;;27.13;17.10;;;17.60;50.40;;;;;;5051088;28;20473;-81
2023/02/16 10:44:21;;;;;;;29.13;18.17;;;17.60;50.40;;;;;;5055354;28;20478;-81
2023/02/16 10:46:54;;;;;;;31.20;16.77;;;17.60;50.40;;;;;;5050052;28;20439;-81
2023/02/16 10:49:22;;;;;;;25.83;17.20;;;17.60;50.40;;;;;;5054340;28;20451;-81
2023/02/16 10:51:50;;;;;;;26.93;16.53;;;17.70;50.50;;;;;;5057126;28;20481;-81
2023/02/16 10:54:20;;;;;;;24.63;16.77;;;17.60;50.60;;;;;;5054614;28;20443;-81
2023/02/16 10:56:52;;;;;;;26.00;17.70;;;17.60;50.60;;;;;;5053940;28;20473;-82
2023/02/16 10:59:21;;;;;;;24.07;16.10;;;17.60;50.60;;;;;;5046873;28;20470;-81
2023/02/16 11:01:50;;;;;;;29.40;16.47;;;17.60;50.70;;;;;;5056550;28;20439;-81
2023/02/16 11:04:36;;;;;;;32.50;17.10;;;17.60;50.60;;;;;;5056955;28;20474;-81
2023/02/16 11:07:05;;;;;;;24.67;15.97;;;17.60;50.60;;;;;;5057175;28;20492;-82
2023/02/16 11:09:35;;;;;;;24.67;16.37;;;17.60;50.80;;;;;;5054619;28;20446;-81
2023/02/16 11:12:13;;;;;;;24.60;16.47;;;17.60;50.70;;;;;;5048140;28;20466;-81
2023/02/16 11:14:47;;;;;;;23.47;15.87;;;17.60;50.70;;;;;;5048036;28;20438;-81
2023/02/16 11:17:15;;;;;;;27.30;16.70;;;17.60;50.80;;;;;;5056606;28;20449;-81
2023/02/16 11:19:49;;;;;;;29.63;16.67;;;17.60;50.80;;;;;;5049113;28;20462;-80
2023/02/16 11:22:26;;;;;;;30.03;16.57;;;17.60;50.80;;;;;;5052154;28;20469;-81
2023/02/16 11:24:55;;;;;;;27.20;16.70;;;17.60;50.80;;;;;;5057261;28;20470;-80
2023/02/16 11:27:25;;;;;;;23.37;15.90;;;17.70;50.80;;;;;;5055924;28;20463;-81
2023/02/16 11:30:20;;;;;;;23.90;15.60;;;17.60;50.80;;;;;;5039666;28;20477;-81
2023/02/16 11:32:50;;;;;;;23.67;15.13;;;17.60;50.90;;;;;;5057040;28;20462;-81
2023/02/16 11:35:18;;;;;;;23.30;15.60;;;17.60;50.90;;;;;;5053651;28;20442;-81
2023/02/16 11:37:46;;;;;;;20.80;14.50;;;17.60;51.00;;;;;;5061638;28;20411;-81
2023/02/16 11:40:19;;;;;;;23.87;15.40;;;17.60;51.10;;;;;;5054007;28;20446;-80
2023/02/16 11:42:51;;;;;;;21.70;14.80;;;17.70;51.20;;;;;;5045462;28;20857;-81
2023/02/16 11:45:27;;;;;;;21.47;14.50;;;17.70;51.10;;;;;;5049313;28;20447;-79
2023/02/16 11:48:00;;;;;;;23.07;14.90;;;17.70;51.10;;;;;;5049197;28;20450;-80
2023/02/16 11:50:29;;;;;;;24.93;15.80;;;17.70;51.00;;;;;;5055079;28;20787;-82
2023/02/16 11:52:58;;;;;;;21.07;15.10;;;17.80;51.20;;;;;;5054832;28;20467;-81
2023/02/16 11:55:27;;;;;;;21.40;15.10;;;17.70;51.10;;;;;;5055726;28;20446;-81
2023/02/16 11:57:57;;;;;;;23.17;14.53;;;17.80;51.30;;;;;;5050831;28;20441;-81
2023/02/16 12:00:26;;;;;;;18.57;13.53;;;17.70;51.20;;;;;;5052486;28;20442;-81
2023/02/16 12:03:14;;;;;;;23.87;14.47;;;17.80;51.30;;;;;;5054835;28;20473;-81
2023/02/16 12:05:53;;;;;;;21.97;14.53;;;17.80;51.20;;;;;;5054347;28;20442;-81
2023/02/16 12:08:34;;;;;;;18.33;12.93;;;17.80;51.20;;;;;;5056649;28;20440;-81
2023/02/16 12:11:09;;;;;;;24.20;14.23;;;17.90;51.20;;;;;;5050892;28;20462;-81
2023/02/16 12:13:42;;;;;;;22.93;15.03;;;17.90;51.20;;;;;;5050391;28;20454;-81
2023/02/16 12:16:19;;;;;;;21.57;14.50;;;17.90;51.20;;;;;;5055688;28;20431;-80
2023/02/16 12:18:52;;;;;;;24.57;15.60;;;17.90;51.20;;;;;;5053298;28;20426;-80
2023/02/16 12:21:21;;;;;;;21.80;14.70;;;17.80;51.20;;;;;;5055435;28;20472;-81
2023/02/16 12:23:54;;;;;;;21.80;14.03;;;17.90;51.40;;;;;;5056072;28;20477;-79
2023/02/16 12:26:40;;;;;;;22.60;14.40;;;17.90;51.20;;;;;;5053016;28;20474;-79
2023/02/16 12:29:24;;;;;;;25.13;13.77;;;18.00;51.30;;;;;;5056466;28;20469;-79
2023/02/16 12:32:04;;;;;;;22.67;14.97;;;18.00;51.20;;;;;;5048297;28;20480;-80
2023/02/16 12:34:37;;;;;;;24.23;14.63;;;18.00;51.20;;;;;;5053651;28;20438;-80
2023/02/16 12:37:09;;;;;;;21.17;13.80;;;17.90;51.20;;;;;;5048899;28;20446;-80
2023/02/16 12:39:39;;;;;;;20.40;14.77;;;17.90;51.30;;;;;;5052416;28;20444;-80
2023/02/16 12:42:49;;;;;;;21.43;15.10;;;17.90;51.30;;;;;;5054417;28;20492;-79
2023/02/16 12:45:20;;;;;;;22.70;15.67;;;17.90;51.40;;;;;;5044748;28;20462;-80
2023/02/16 12:47:51;;;;;;;24.20;16.33;;;17.90;51.50;;;;;;5049638;28;20450;-80
2023/02/16 12:50:21;;;;;;;21.23;14.83;;;17.90;51.50;;;;;;5057435;28;20450;-80
2023/02/16 12:52:52;;;;;;;25.80;16.40;;;18.00;51.50;;;;;;5041494;28;20447;-79
2023/02/16 12:55:22;;;;;;;24.83;16.03;;;17.90;51.40;;;;;;5055967;28;20446;-80
2023/02/16 12:57:54;;;;;;;24.40;16.37;;;17.90;51.50;;;;;;5047866;28;20435;-80
2023/02/16 13:00:26;;;;;;;21.83;15.77;;;18.00;51.50;;;;;;5050417;28;20434;-80
2023/02/16 13:02:56;;;;;;;23.83;16.93;;;18.00;51.40;;;;;;5049494;28;20450;-81
2023/02/16 13:05:27;;;;;;;26.00;17.03;;;17.90;51.40;;;;;;5050783;28;20466;-80
2023/02/16 13:07:58;;;;;;;29.47;18.30;;;17.90;51.40;;;;;;5056938;28;20480;-80
2023/02/16 13:10:30;;;;;;;29.90;18.93;;;17.90;51.40;;;;;;5054248;28;20468;-80
2023/02/16 13:13:02;;;;;;;29.30;18.00;;;17.90;51.50;;;;;;5055174;28;20468;-81
2023/02/16 13:15:34;;;;;;;29.17;18.60;;;17.90;51.60;;;;;;5055498;28;20446;-80
2023/02/16 13:18:05;;;;;;;28.27;18.63;;;17.90;51.60;;;;;;5056306;28;20442;-81
2023/02/16 13:20:33;;;;;;;28.90;18.23;;;17.90;51.50;;;;;;5051761;28;20452;-80
2023/02/16 13:23:31;;;;;;;32.63;20.07;;;17.90;51.50;;;;;;5048846;28;20541;-81
2023/02/16 13:26:10;;;;;;;30.07;18.83;;;17.90;51.60;;;;;;5047042;28;20489;-81
2023/02/16 13:28:56;;;;;;;29.67;19.43;;;17.80;51.60;;;;;;5052862;28;20464;-80
2023/02/16 13:31:30;;;;;;;30.53;20.33;;;17.80;51.70;;;;;;5059811;28;20442;-81
2023/02/16 13:34:19;;;;;;;27.87;18.63;;;17.80;51.70;;;;;;5056992;28;20457;-80
2023/02/16 13:37:11;;;;;;;32.03;19.60;;;17.80;51.80;;;;;;5051296;28;20428;-80